UAL1227 KLAS-KSAN
Flight info
| Callsign | UAL1227 |
|---|---|
| Flight time | 0h 48m |
| Altitude | 34000 |
| Route | RADYR2 LVELL LUCKI1 |
| Aircraft | B738/M-SDE2E3FGHIRWXY/LB1 |
Departure
| Time | 2026-05-04 00:49 |
|---|---|
| Airport | Harry Reid International Airport (KLAS) |
Arrival
| Time | 2026-05-04 01:37 |
|---|---|
| Airport | San Diego International Airport (KSAN) |
| Time | Latitude | Longitude | Altitude | Speed | Heading |
|---|---|---|---|---|---|
| 2026-05-04 00:28 | 36.08075 | -115.13487 | 2061 ft | 0 kts | 239° |
| 2026-05-04 00:37 | 36.08078 | -115.13479 | 2061 ft | 2 kts | 239° |
| 2026-05-04 00:38 | 36.08086 | -115.13463 | 2060 ft | 2 kts | 239° |
| 2026-05-04 00:38 | 36.08094 | -115.13447 | 2059 ft | 2 kts | 239° |
| 2026-05-04 00:38 | 36.08101 | -115.13432 | 2058 ft | 2 kts | 239° |
| 2026-05-04 00:38 | 36.08108 | -115.13416 | 2058 ft | 2 kts | 240° |
| 2026-05-04 00:39 | 36.08116 | -115.13400 | 2057 ft | 2 kts | 239° |
| 2026-05-04 00:39 | 36.08123 | -115.13384 | 2056 ft | 1 kts | 239° |
| 2026-05-04 00:39 | 36.08127 | -115.13376 | 2056 ft | 1 kts | 219° |
| 2026-05-04 00:39 | 36.08133 | -115.13373 | 2055 ft | 1 kts | 170° |
| 2026-05-04 00:40 | 36.08139 | -115.13374 | 2055 ft | 0 kts | 180° |
| 2026-05-04 00:42 | 36.08136 | -115.13374 | 2055 ft | 1 kts | 180° |
| 2026-05-04 00:42 | 36.08114 | -115.13374 | 2056 ft | 4 kts | 180° |
| 2026-05-04 00:42 | 36.08082 | -115.13374 | 2056 ft | 3 kts | 180° |
| 2026-05-04 00:42 | 36.08078 | -115.13374 | 2056 ft | 2 kts | 180° |
| 2026-05-04 00:43 | 36.08024 | -115.13374 | 2058 ft | 9 kts | 179° |
| 2026-05-04 00:43 | 36.07973 | -115.13380 | 2059 ft | 5 kts | 187° |
| 2026-05-04 00:43 | 36.07946 | -115.13406 | 2060 ft | 10 kts | 230° |
| 2026-05-04 00:43 | 36.07903 | -115.13468 | 2064 ft | 7 kts | 225° |
| 2026-05-04 00:44 | 36.07872 | -115.13500 | 2065 ft | 6 kts | 212° |
| 2026-05-04 00:44 | 36.07831 | -115.13491 | 2066 ft | 7 kts | 110° |
| 2026-05-04 00:44 | 36.07829 | -115.13422 | 2063 ft | 9 kts | 89° |
| 2026-05-04 00:44 | 36.07828 | -115.13316 | 2059 ft | 13 kts | 91° |
| 2026-05-04 00:45 | 36.07828 | -115.13199 | 2057 ft | 13 kts | 89° |
| 2026-05-04 00:45 | 36.07827 | -115.13086 | 2053 ft | 13 kts | 92° |
| 2026-05-04 00:45 | 36.07827 | -115.12965 | 2049 ft | 14 kts | 90° |
| 2026-05-04 00:45 | 36.07828 | -115.12846 | 2047 ft | 13 kts | 90° |
| 2026-05-04 00:46 | 36.07829 | -115.12730 | 2045 ft | 13 kts | 90° |
| 2026-05-04 00:46 | 36.07829 | -115.12620 | 2042 ft | 12 kts | 90° |
| 2026-05-04 00:46 | 36.07829 | -115.12516 | 2040 ft | 11 kts | 90° |
| 2026-05-04 00:46 | 36.07828 | -115.12417 | 2038 ft | 11 kts | 91° |
| 2026-05-04 00:47 | 36.07828 | -115.12322 | 2037 ft | 10 kts | 90° |
| 2026-05-04 00:47 | 36.07808 | -115.12242 | 2037 ft | 8 kts | 128° |
| 2026-05-04 00:47 | 36.07780 | -115.12196 | 2038 ft | 5 kts | 128° |
| 2026-05-04 00:47 | 36.07751 | -115.12163 | 2038 ft | 8 kts | 144° |
| 2026-05-04 00:48 | 36.07657 | -115.12141 | 2040 ft | 14 kts | 215° |
| 2026-05-04 00:48 | 36.07641 | -115.12374 | 2041 ft | 58 kts | 269° |
| 2026-05-04 00:48 | 36.07641 | -115.13180 | 2058 ft | 125 kts | 269° |
| 2026-05-04 00:48 | 36.07635 | -115.14462 | 2167 ft | 168 kts | 264° |
| 2026-05-04 00:49 | 36.07657 | -115.15906 | 2844 ft | 173 kts | 266° |
| 2026-05-04 00:49 | 36.07652 | -115.17419 | 3461 ft | 182 kts | 263° |
| 2026-05-04 00:49 | 36.07593 | -115.19016 | 4088 ft | 188 kts | 262° |
| 2026-05-04 00:49 | 36.07454 | -115.20597 | 4747 ft | 189 kts | 255° |
| 2026-05-04 00:50 | 36.07194 | -115.22176 | 5468 ft | 190 kts | 256° |
| 2026-05-04 00:50 | 36.06988 | -115.23830 | 5947 ft | 205 kts | 260° |
| 2026-05-04 00:50 | 36.06840 | -115.25627 | 6358 ft | 221 kts | 254° |
| 2026-05-04 00:50 | 36.06126 | -115.27397 | 6612 ft | 242 kts | 224° |
| 2026-05-04 00:51 | 36.04669 | -115.28442 | 7308 ft | 250 kts | 193° |
| 2026-05-04 00:51 | 36.03847 | -115.28561 | 7726 ft | 252 kts | 183° |
| 2026-05-04 00:51 | 36.03499 | -115.28562 | 7848 ft | 255 kts | 180° |
| 2026-05-04 00:51 | 36.01696 | -115.28423 | 8168 ft | 276 kts | 183° |
| 2026-05-04 00:52 | 35.99809 | -115.28920 | 7999 ft | 273 kts | 204° |
| 2026-05-04 00:52 | 35.98071 | -115.29813 | 8077 ft | 282 kts | 198° |
| 2026-05-04 00:52 | 35.96150 | -115.30250 | 9056 ft | 279 kts | 190° |
| 2026-05-04 00:52 | 35.94245 | -115.30624 | 9860 ft | 281 kts | 192° |
| 2026-05-04 00:53 | 35.92323 | -115.31097 | 10412 ft | 292 kts | 193° |
| 2026-05-04 00:53 | 35.90256 | -115.31622 | 10531 ft | 316 kts | 193° |
| 2026-05-04 00:53 | 35.88034 | -115.32160 | 10858 ft | 332 kts | 192° |
| 2026-05-04 00:53 | 35.85722 | -115.32715 | 11416 ft | 340 kts | 192° |
| 2026-05-04 00:54 | 35.83396 | -115.33282 | 12039 ft | 344 kts | 192° |
| 2026-05-04 00:54 | 35.81066 | -115.33857 | 12636 ft | 349 kts | 192° |
| 2026-05-04 00:54 | 35.78663 | -115.34450 | 13316 ft | 351 kts | 192° |
| 2026-05-04 00:54 | 35.76255 | -115.35036 | 13927 ft | 354 kts | 192° |
| 2026-05-04 00:55 | 35.73856 | -115.35621 | 14554 ft | 356 kts | 192° |
| 2026-05-04 00:55 | 35.71438 | -115.36213 | 15146 ft | 359 kts | 192° |
| 2026-05-04 00:55 | 35.68985 | -115.36813 | 15743 ft | 362 kts | 192° |
| 2026-05-04 00:55 | 35.66507 | -115.37419 | 16314 ft | 364 kts | 193° |
| 2026-05-04 00:56 | 35.64030 | -115.38020 | 16866 ft | 367 kts | 192° |
| 2026-05-04 00:56 | 35.61492 | -115.38478 | 17403 ft | 371 kts | 187° |
| 2026-05-04 00:56 | 35.58910 | -115.38564 | 17922 ft | 375 kts | 181° |
| 2026-05-04 00:56 | 35.56273 | -115.38387 | 18429 ft | 378 kts | 180° |
| 2026-05-04 00:57 | 35.53653 | -115.38205 | 18922 ft | 381 kts | 181° |
| 2026-05-04 00:57 | 35.51021 | -115.38042 | 19408 ft | 383 kts | 181° |
| 2026-05-04 00:57 | 35.48333 | -115.37875 | 19860 ft | 386 kts | 181° |
| 2026-05-04 00:57 | 35.45661 | -115.37698 | 20304 ft | 389 kts | 182° |
| 2026-05-04 00:58 | 35.42952 | -115.37508 | 20755 ft | 392 kts | 182° |
| 2026-05-04 00:58 | 35.40236 | -115.37306 | 21215 ft | 393 kts | 182° |
| 2026-05-04 00:58 | 35.37494 | -115.37106 | 21634 ft | 396 kts | 183° |
| 2026-05-04 00:58 | 35.34761 | -115.36912 | 22044 ft | 398 kts | 183° |
| 2026-05-04 00:59 | 35.31996 | -115.36718 | 22439 ft | 400 kts | 184° |
| 2026-05-04 00:59 | 35.29206 | -115.36522 | 22820 ft | 403 kts | 184° |
| 2026-05-04 00:59 | 35.26383 | -115.36318 | 23230 ft | 404 kts | 184° |
| 2026-05-04 00:59 | 35.23604 | -115.36118 | 23577 ft | 407 kts | 185° |
| 2026-05-04 01:00 | 35.20800 | -115.35920 | 23946 ft | 408 kts | 185° |
| 2026-05-04 01:00 | 35.17941 | -115.35725 | 24318 ft | 410 kts | 185° |
| 2026-05-04 01:00 | 35.15118 | -115.35538 | 24632 ft | 413 kts | 185° |
| 2026-05-04 01:00 | 35.12241 | -115.35345 | 24978 ft | 415 kts | 185° |
| 2026-05-04 01:01 | 35.09369 | -115.35144 | 25275 ft | 417 kts | 185° |
| 2026-05-04 01:01 | 35.06476 | -115.34935 | 25623 ft | 419 kts | 185° |
| 2026-05-04 01:01 | 35.03569 | -115.34727 | 25916 ft | 421 kts | 186° |
| 2026-05-04 01:01 | 35.00638 | -115.34527 | 26230 ft | 422 kts | 186° |
| 2026-05-04 01:02 | 34.97717 | -115.34331 | 26492 ft | 423 kts | 186° |
| 2026-05-04 01:02 | 34.94792 | -115.34132 | 26775 ft | 425 kts | 186° |
| 2026-05-04 01:02 | 34.91849 | -115.33929 | 27014 ft | 428 kts | 186° |
| 2026-05-04 01:02 | 34.88855 | -115.33719 | 27275 ft | 430 kts | 186° |
| 2026-05-04 01:03 | 34.85851 | -115.33508 | 27546 ft | 432 kts | 186° |
| 2026-05-04 01:03 | 34.82861 | -115.33363 | 27764 ft | 431 kts | 189° |
| 2026-05-04 01:03 | 34.79907 | -115.33490 | 28122 ft | 424 kts | 194° |
| 2026-05-04 01:03 | 34.77019 | -115.33992 | 28401 ft | 416 kts | 201° |
| 2026-05-04 01:04 | 34.74284 | -115.34934 | 28629 ft | 411 kts | 207° |
| 2026-05-04 01:04 | 34.71579 | -115.36112 | 28950 ft | 409 kts | 208° |
| 2026-05-04 01:04 | 34.68905 | -115.37260 | 29244 ft | 410 kts | 208° |
| 2026-05-04 01:04 | 34.66218 | -115.38382 | 29654 ft | 408 kts | 208° |
| 2026-05-04 01:05 | 34.63579 | -115.39494 | 29989 ft | 406 kts | 208° |
| 2026-05-04 01:05 | 34.60916 | -115.40637 | 30328 ft | 404 kts | 209° |
| 2026-05-04 01:05 | 34.58284 | -115.41785 | 30681 ft | 402 kts | 210° |
| 2026-05-04 01:05 | 34.55658 | -115.42934 | 31026 ft | 400 kts | 210° |
| 2026-05-04 01:06 | 34.53044 | -115.44075 | 31387 ft | 398 kts | 210° |
| 2026-05-04 01:06 | 34.50480 | -115.45191 | 31710 ft | 396 kts | 210° |
| 2026-05-04 01:06 | 34.47897 | -115.46313 | 32054 ft | 394 kts | 210° |
| 2026-05-04 01:06 | 34.45341 | -115.47425 | 32384 ft | 392 kts | 211° |
| 2026-05-04 01:07 | 34.42783 | -115.48538 | 32704 ft | 390 kts | 211° |
| 2026-05-04 01:07 | 34.40249 | -115.49639 | 33026 ft | 387 kts | 211° |
| 2026-05-04 01:07 | 34.37729 | -115.50737 | 33339 ft | 385 kts | 212° |
| 2026-05-04 01:07 | 34.35220 | -115.51839 | 33622 ft | 382 kts | 212° |
| 2026-05-04 01:08 | 34.32802 | -115.53043 | 33812 ft | 375 kts | 217° |
| 2026-05-04 01:08 | 34.28394 | -115.56171 | 33817 ft | 365 kts | 222° |
| 2026-05-04 01:09 | 34.24270 | -115.59152 | 33817 ft | 363 kts | 221° |
| 2026-05-04 01:09 | 34.19785 | -115.62022 | 33813 ft | 375 kts | 214° |
| 2026-05-04 01:10 | 34.14905 | -115.64302 | 33802 ft | 375 kts | 214° |
| 2026-05-04 01:10 | 34.10102 | -115.66627 | 33795 ft | 376 kts | 213° |
| 2026-05-04 01:11 | 34.05259 | -115.68919 | 33789 ft | 376 kts | 213° |
| 2026-05-04 01:11 | 34.00398 | -115.71217 | 33789 ft | 376 kts | 213° |
| 2026-05-04 01:12 | 33.95540 | -115.73508 | 33789 ft | 376 kts | 213° |
| 2026-05-04 01:12 | 33.90696 | -115.75798 | 33785 ft | 375 kts | 213° |
| 2026-05-04 01:12 | 33.88305 | -115.76968 | 33372 ft | 369 kts | 214° |
| 2026-05-04 01:13 | 33.85971 | -115.78131 | 32919 ft | 361 kts | 214° |
| 2026-05-04 01:13 | 33.83664 | -115.79276 | 32463 ft | 361 kts | 213° |
| 2026-05-04 01:13 | 33.81334 | -115.80432 | 31987 ft | 369 kts | 213° |
| 2026-05-04 01:13 | 33.78964 | -115.81605 | 31490 ft | 367 kts | 213° |
| 2026-05-04 01:14 | 33.76639 | -115.82742 | 31004 ft | 362 kts | 212° |
| 2026-05-04 01:14 | 33.74297 | -115.83845 | 30525 ft | 362 kts | 211° |
| 2026-05-04 01:14 | 33.71928 | -115.84929 | 30038 ft | 369 kts | 211° |
| 2026-05-04 01:14 | 33.69558 | -115.86014 | 29542 ft | 366 kts | 210° |
| 2026-05-04 01:15 | 33.67211 | -115.87103 | 29053 ft | 360 kts | 211° |
| 2026-05-04 01:15 | 33.64924 | -115.88182 | 28578 ft | 355 kts | 211° |
| 2026-05-04 01:15 | 33.62639 | -115.89256 | 28102 ft | 353 kts | 210° |
| 2026-05-04 01:15 | 33.60333 | -115.90338 | 27620 ft | 357 kts | 210° |
| 2026-05-04 01:16 | 33.58051 | -115.91402 | 27136 ft | 354 kts | 210° |
| 2026-05-04 01:16 | 33.55779 | -115.92453 | 26656 ft | 349 kts | 210° |
| 2026-05-04 01:16 | 33.53618 | -115.93609 | 26184 ft | 338 kts | 217° |
| 2026-05-04 01:16 | 33.51695 | -115.95169 | 25809 ft | 326 kts | 226° |
| 2026-05-04 01:17 | 33.50104 | -115.97062 | 25786 ft | 326 kts | 234° |
| 2026-05-04 01:17 | 33.48748 | -115.99255 | 25779 ft | 329 kts | 239° |
| 2026-05-04 01:17 | 33.47463 | -116.01522 | 25783 ft | 328 kts | 238° |
| 2026-05-04 01:17 | 33.46185 | -116.03696 | 25556 ft | 319 kts | 238° |
| 2026-05-04 01:18 | 33.44920 | -116.05837 | 25177 ft | 315 kts | 238° |
| 2026-05-04 01:18 | 33.43665 | -116.07999 | 24766 ft | 321 kts | 238° |
| 2026-05-04 01:18 | 33.42402 | -116.10172 | 24330 ft | 316 kts | 238° |
| 2026-05-04 01:18 | 33.41138 | -116.12328 | 23904 ft | 311 kts | 238° |
| 2026-05-04 01:19 | 33.39911 | -116.14427 | 23495 ft | 312 kts | 238° |
| 2026-05-04 01:19 | 33.38685 | -116.16539 | 23069 ft | 313 kts | 238° |
| 2026-05-04 01:19 | 33.37452 | -116.18652 | 22642 ft | 308 kts | 238° |
| 2026-05-04 01:19 | 33.36231 | -116.20740 | 22219 ft | 303 kts | 238° |
| 2026-05-04 01:20 | 33.35026 | -116.22796 | 21804 ft | 308 kts | 236° |
| 2026-05-04 01:20 | 33.33582 | -116.24725 | 21359 ft | 310 kts | 225° |
| 2026-05-04 01:20 | 33.31791 | -116.26134 | 20919 ft | 313 kts | 213° |
| 2026-05-04 01:20 | 33.29835 | -116.27243 | 20480 ft | 311 kts | 212° |
| 2026-05-04 01:21 | 33.27883 | -116.28394 | 20040 ft | 315 kts | 213° |
| 2026-05-04 01:21 | 33.25951 | -116.29555 | 19590 ft | 311 kts | 213° |
| 2026-05-04 01:21 | 33.24033 | -116.30685 | 19157 ft | 307 kts | 213° |
| 2026-05-04 01:21 | 33.22127 | -116.31800 | 18728 ft | 303 kts | 213° |
| 2026-05-04 01:22 | 33.20227 | -116.32923 | 18300 ft | 309 kts | 213° |
| 2026-05-04 01:22 | 33.18321 | -116.34045 | 17857 ft | 305 kts | 212° |
| 2026-05-04 01:22 | 33.16438 | -116.35139 | 17401 ft | 302 kts | 212° |
| 2026-05-04 01:22 | 33.14586 | -116.36217 | 16973 ft | 298 kts | 212° |
| 2026-05-04 01:23 | 33.12696 | -116.37328 | 16536 ft | 302 kts | 212° |
| 2026-05-04 01:23 | 33.10829 | -116.38432 | 16114 ft | 302 kts | 211° |
| 2026-05-04 01:23 | 33.08971 | -116.39516 | 15695 ft | 298 kts | 210° |
| 2026-05-04 01:23 | 33.07111 | -116.40592 | 15280 ft | 295 kts | 210° |
| 2026-05-04 01:24 | 33.05256 | -116.41676 | 14877 ft | 301 kts | 210° |
| 2026-05-04 01:24 | 33.03387 | -116.42777 | 14451 ft | 297 kts | 210° |
| 2026-05-04 01:24 | 33.01573 | -116.43877 | 14046 ft | 292 kts | 212° |
| 2026-05-04 01:24 | 32.99886 | -116.45171 | 13647 ft | 295 kts | 220° |
| 2026-05-04 01:25 | 32.98297 | -116.46753 | 13228 ft | 294 kts | 222° |
| 2026-05-04 01:25 | 32.96763 | -116.48297 | 12820 ft | 290 kts | 221° |
| 2026-05-04 01:25 | 32.95221 | -116.49822 | 12416 ft | 292 kts | 221° |
| 2026-05-04 01:25 | 32.93657 | -116.51389 | 11986 ft | 294 kts | 221° |
| 2026-05-04 01:26 | 32.92108 | -116.52958 | 11559 ft | 290 kts | 221° |
| 2026-05-04 01:26 | 32.90597 | -116.54476 | 11143 ft | 287 kts | 221° |
| 2026-05-04 01:26 | 32.89061 | -116.56018 | 10726 ft | 292 kts | 221° |
| 2026-05-04 01:26 | 32.87522 | -116.57569 | 10350 ft | 289 kts | 221° |
| 2026-05-04 01:27 | 32.86015 | -116.59087 | 10155 ft | 278 kts | 221° |
| 2026-05-04 01:27 | 32.84569 | -116.60541 | 10003 ft | 267 kts | 221° |
| 2026-05-04 01:27 | 32.83162 | -116.61958 | 9704 ft | 263 kts | 221° |
| 2026-05-04 01:27 | 32.81786 | -116.63344 | 9367 ft | 260 kts | 221° |
| 2026-05-04 01:28 | 32.80412 | -116.64726 | 9034 ft | 257 kts | 221° |
| 2026-05-04 01:28 | 32.79060 | -116.66087 | 8718 ft | 258 kts | 220° |
| 2026-05-04 01:28 | 32.77700 | -116.67499 | 8385 ft | 261 kts | 226° |
| 2026-05-04 01:28 | 32.76672 | -116.69248 | 8066 ft | 257 kts | 241° |
| 2026-05-04 01:29 | 32.75830 | -116.71102 | 7736 ft | 255 kts | 240° |
| 2026-05-04 01:29 | 32.74964 | -116.72920 | 7413 ft | 253 kts | 240° |
| 2026-05-04 01:29 | 32.74094 | -116.74751 | 7094 ft | 258 kts | 240° |
| 2026-05-04 01:29 | 32.73222 | -116.76595 | 6762 ft | 256 kts | 240° |
| 2026-05-04 01:30 | 32.72352 | -116.78430 | 6437 ft | 253 kts | 240° |
| 2026-05-04 01:30 | 32.71496 | -116.80235 | 6114 ft | 251 kts | 240° |
| 2026-05-04 01:30 | 32.70679 | -116.82046 | 5888 ft | 244 kts | 246° |
| 2026-05-04 01:30 | 32.70095 | -116.83894 | 5669 ft | 239 kts | 250° |
| 2026-05-04 01:31 | 32.69519 | -116.85761 | 5341 ft | 236 kts | 249° |
| 2026-05-04 01:31 | 32.68964 | -116.87531 | 5214 ft | 226 kts | 249° |
| 2026-05-04 01:31 | 32.68438 | -116.89286 | 4969 ft | 226 kts | 250° |
| 2026-05-04 01:31 | 32.67941 | -116.90974 | 4915 ft | 211 kts | 250° |
| 2026-05-04 01:32 | 32.67450 | -116.92648 | 4937 ft | 221 kts | 253° |
| 2026-05-04 01:32 | 32.67339 | -116.94465 | 4893 ft | 220 kts | 282° |
| 2026-05-04 01:32 | 32.67822 | -116.96201 | 4566 ft | 226 kts | 286° |
| 2026-05-04 01:32 | 32.68274 | -116.98045 | 3822 ft | 243 kts | 284° |
| 2026-05-04 01:33 | 32.68733 | -116.99958 | 3219 ft | 244 kts | 285° |
| 2026-05-04 01:33 | 32.69194 | -117.01842 | 3008 ft | 230 kts | 284° |
| 2026-05-04 01:33 | 32.69629 | -117.03632 | 2729 ft | 219 kts | 284° |
| 2026-05-04 01:33 | 32.70038 | -117.05309 | 2466 ft | 205 kts | 285° |
| 2026-05-04 01:34 | 32.70423 | -117.06888 | 2185 ft | 193 kts | 285° |
| 2026-05-04 01:34 | 32.70774 | -117.08331 | 1995 ft | 171 kts | 285° |
| 2026-05-04 01:34 | 32.71079 | -117.09586 | 1984 ft | 150 kts | 285° |
| 2026-05-04 01:34 | 32.71346 | -117.10752 | 1808 ft | 138 kts | 283° |
| 2026-05-04 01:35 | 32.71578 | -117.11816 | 1333 ft | 132 kts | 285° |
| 2026-05-04 01:35 | 32.71822 | -117.12884 | 1010 ft | 138 kts | 288° |
| 2026-05-04 01:35 | 32.72140 | -117.13991 | 939 ft | 145 kts | 288° |
| 2026-05-04 01:35 | 32.72423 | -117.15146 | 695 ft | 145 kts | 285° |
| 2026-05-04 01:36 | 32.72694 | -117.16306 | 508 ft | 145 kts | 287° |
| 2026-05-04 01:36 | 32.72978 | -117.17420 | 210 ft | 137 kts | 288° |
| 2026-05-04 01:36 | 32.73235 | -117.18475 | 42 ft | 124 kts | 287° |
| 2026-05-04 01:36 | 32.73433 | -117.19282 | 26 ft | 73 kts | 283° |
| 2026-05-04 01:37 | 32.73524 | -117.19667 | 26 ft | 32 kts | 286° |